Terminal Aerodrome Forecast
Issued by NWS

Home | Current Version | Previous Version | Graphics & Text | Print | Product List | Glossary On
Versions: 1 2 3 4 5 6 7 8 9 10 11 12 13
730
FTUS43 KBIS 271725
TAFDIK
TAF
KDIK 271725Z 2718/2818 27006KT P6SM SKC
     FM272200 32008KT P6SM SKC
     FM280000 01007KT P6SM SKC
     FM280400 13005KT P6SM SKC=

USA.gov is the U.S. government's official web portal to all federal, state and local government web resources and services.